Haines Airport Haines US
ICAO: PAHN
IATA:
Category: Medium
Scheduled Services:

Elevation: 15 ft
TransAlt. 18000 ft.

Airport Communications:
ASOS:135.75
ANCHORAGE CNTR:132.3
CTAF:122.9
JUNEAU RDO:122.6
TWEB:24.5

PAHN Zoom In..

Runways:

(A) RW 08 length 4000 ft width 100 ft
---- / hdg 86

(B) RW 26 length 4000 ft width 100 ft
---- / hdg 266

Location; PAHN
Day. 23 / Time. 14.54 Zulu
* Altimeter: 29.87
* Temperature: -03° c. -26.6°f.
* Wind from: 290° Speed 11 kn.
Dewpoint: -05° c.
Visibility: 2 Statute Miles.
Clouds: Overcast 1800 ft.
Conditions: Light Snow.Conditions: Mist.

PAHN 231454Z AUTO 29011KT 2SM -SN BR OVC018 M03/M05 A2987 RMK AO2 SLP118 P0000 60001 T10331050 56006 TSNO


Wind From 290°
Speed 11 kn.

YouTube Music Video
 
jpsmedia.com for Web Design  worldairports.se 2018   terms of use